メインページ
METAR-TAF:

METAR-TAF

空港 :

メキシコシティ, メキシコ

メキシコ・シティ国際空港

緯度: 19-26N, 経度: 099-06W, 海抜: 2238m

現時点の気象観測

当レポートは53分前の21:43(UTC)に作成
東/南東の風 15kt、最大25ktの突風を伴う
気温 20°C
湿度 40%
気圧 1026 hPa
視程: 12.9km
高度2000ftの千切れ雲あり, 積乱雲.
高度8000ftの曇り

METAR: MMMX 262143Z 11015G25KT 8SM BKN020CB OVC080 20/06 A3031 TEMPO 5SM TSRA RMK 8/96/ HZY

時間: 17:36 (22:36 UTC)

予報

予報は26日の 16時(UTC)から 27日の 19時(UTC)まで有効
東/南東の風 6kt
視程: 9.7km
高度2000ftの千切れ雲あり
高度8000ftの千切れ雲あり
煙霧
26日の 2100時(UTC)から
東/南東の風 15kt
視程: 10km
高度2000ftの千切れ雲あり, 積乱雲.
高度8000ftの曇り
近辺で, にわか雨
26日の 22時(UTC)から 27日の 02時(UTC)まで一時的に
視程: 8.0km
激しい雷雨, 雨
27日の 0300時(UTC)から
南/南東の風 5kt
視程: 10km
高度2000ftの雲は散在している
高度8000ftの千切れ雲あり
27日の 1200時(UTC)から
北東の風 5kt
視程: 8.0km
高度2000ftの千切れ雲あり
高度8000ftの千切れ雲あり
煙霧
27日の 1600時(UTC)から
北/北東の風 8kt
視程: 9.7km
高度2000ftの雲は散在している
高度8000ftの千切れ雲あり
煙霧
27日の 2100時(UTC)から
北/北東の風 15kt
視程: 10km
高度2000ftの千切れ雲あり, 積乱雲.
高度8000ftの曇り
近辺で, にわか雨
確率 40%
27日の 21時(UTC)から 27日の 24時(UTC)まで
視程: 4.8km
激しい雷雨, 雨

TAF: MMMX 261643 2618/2724 12006KT 6SM HZ BKN020 BKN080 TX23/2621Z TN15/2713Z FM262100 12015KT P6SM VC SH BKN020CB OVC080 TEMPO 2622/2702 5SM TSRA FM270300 15005KT P6SM SCT020 BKN080 FM271200 05005KT 5SM HZ BKN020 BKN080 FM271600 03008KT 6SM HZ SCT020 BKN080 FM272100 03015KT P6SM VC SH BKN020CB OVC080 PROB40 2721/2724 3SM TSRA

4,000以上の空港の気象観測と天気予報(METAR報とTAF報)

利用可能な観測所は地図上に黄色い丸と赤い丸で示す。

丸の上にカーソルを重ねると観測所名を参照できる。

次にクリックすると気象観測と天気予報を参照できる。

マップの切り替え:黒色「×」印の緑ボタンをクリックして拡大、「-」印の緑ボタンをクリックして縮小、緑色の三角印をクリックして隣りの地図に切り替え


METAR-TAF: